KVTN/VTN METAR and TAF weather

Enter ICAO airport designator
Station Type Date Time Source
KVTN METAR 2021/04/18 01:52 UTC NOAA

KVTN 180152Z AUTO 00000KT 10SM SCT065 07/M03 A3012 RMK AO2 SLP215 T00721028


Station Type Date Time Source
KVTN Decoded METAR 2021/04/18 01:52 UTC NOAA

MILLER FIELD - VALENTINE, NE, NE, United States (KVTN) 42-52N 100-33W 788M
Apr 17, 2021 - 09:52 PM EDT / 2021.04.18 0152 UTC
Wind: Calm:0
Visibility: 10 mile(s):0
Sky conditions: partly cloudy
Temperature: 45.0 F (7.2 C)
Dew Point: 27.0 F (-2.8 C)
Relative Humidity: 48%
Pressure (altimeter): 30.12 in. Hg (1019 hPa)
ob: KVTN 180152Z AUTO 00000KT 10SM SCT065 07/M03 A3012 RMK AO2 SLP215 T00721028
cycle: 2

Station Type Date Time Source
KVTN TAF 2021/04/17 18:22 UTC NOAA

TAF KVTN 171720Z 1718/1818 34011KT P6SM VCSH BKN040 BKN060
FM171900 34011KT P6SM BKN040 BKN060
FM180300 26005KT P6SM FEW250
FM181700 29011KT P6SM FEW250

Example: see airport list